Terminal Aerodrome Forecast
Issued by NWS

Home | Current Version | Previous Version | Text Only | Print | Product List | Glossary On
Versions: 1 2 3 4 5 6 7 8 9 10 11 12 13 14 15 16 17 18
949
FTAK31 PAJN 301123
TAFAGY
TAF
PAGY 301123Z 3012/0112 03008KT P6SM BKN090 WS020/02025KT
      TEMPO 3012/3016 03015G22KT
     FM301600 03015G22KT P6SM SKC
     FM301900 02020G30KT P6SM SKC
     FM010300 02012G20KT P6SM SKC
      AMD LTD TO CLD VIS AND WIND=

USA.gov is the U.S. government's official web portal to all federal, state and local government web resources and services.